Time;durP1;ratioP1;P1;durP2;ratioP2;P2;SDS_P1;SDS_P2;PMS_P1;PMS_P2;Temp;Humidity;BMP_temperature;BMP_pressure;BME280_temperature;BME280_humidity;BME280_pressure;Samples;Min_cycle;Max_cycle;Signal;HPM_P1;HPM_P2
2023/04/19 00:01:11;;;;;;;15.20;12.60;;;;;;;8.61;92.89;99862.50;436761;1254;140138;-72
2023/04/19 00:11:16;;;;;;;13.60;10.80;;;;;;;8.54;93.22;99852.75;436334;1251;138966;-71
2023/04/19 00:21:22;;;;;;;7.30;6.40;;;;;;;8.39;92.63;99845.48;436319;1250;140089;-71
2023/04/19 00:31:28;;;;;;;7.90;6.80;;;;;;;8.20;92.62;99838.34;436958;1256;139340;-72
2023/04/19 00:41:34;;;;;;;8.50;6.10;;;;;;;7.98;92.95;99824.98;435976;1254;138610;-72
2023/04/19 00:51:40;;;;;;;7.50;5.60;;;;;;;7.76;93.39;99816.67;435958;1251;139216;-73
2023/04/19 01:01:45;;;;;;;7.70;5.70;;;;;;;7.61;93.74;99810.92;435857;1250;140041;-72
2023/04/19 01:11:51;;;;;;;6.20;5.10;;;;;;;7.47;94.43;99800.77;435880;1256;138755;-71
2023/04/19 01:21:57;;;;;;;6.50;5.90;;;;;;;7.33;95.17;99793.41;436035;1250;140750;-71
2023/04/19 01:32:04;;;;;;;7.10;6.20;;;;;;;7.22;96.39;99793.77;437612;1250;141102;-72
2023/04/19 01:42:10;;;;;;;11.90;10.00;;;;;;;7.17;97.42;99793.46;436194;1251;139092;-72
2023/04/19 01:52:15;;;;;;;13.90;12.60;;;;;;;7.11;98.16;99791.32;435957;1251;139035;-71
2023/04/19 02:02:21;;;;;;;16.70;15.10;;;;;;;7.01;98.69;99779.25;436734;1251;140380;-71
2023/04/19 02:12:28;;;;;;;15.50;13.60;;;;;;;6.91;99.18;99772.39;436427;1254;139372;-71
2023/04/19 02:22:34;;;;;;;16.60;13.20;;;;;;;6.83;99.44;99762.47;435767;1254;138904;-69
2023/04/19 02:32:40;;;;;;;14.60;12.90;;;;;;;6.62;99.46;99753.31;435952;1254;139895;-70
2023/04/19 02:42:46;;;;;;;16.90;14.20;;;;;;;6.28;99.52;99739.48;436222;1252;139349;-70
2023/04/19 02:52:51;;;;;;;15.20;13.70;;;;;;;5.98;99.68;99733.30;436617;1254;141302;-71
2023/04/19 03:02:57;;;;;;;18.80;13.80;;;;;;;5.78;99.94;99720.39;436592;1251;139446;-71
2023/04/19 03:13:04;;;;;;;16.00;13.20;;;;;;;5.51;99.56;99710.20;436174;1256;138682;-71
2023/04/19 03:23:10;;;;;;;16.10;14.50;;;;;;;5.32;99.47;99705.78;436895;1250;138640;-71
2023/04/19 03:33:16;;;;;;;14.00;11.80;;;;;;;5.18;99.69;99696.42;436423;1251;140676;-71
2023/04/19 03:43:23;;;;;;;14.10;12.20;;;;;;;5.01;99.35;99688.61;436513;1251;139181;-71
2023/04/19 03:53:28;;;;;;;18.50;11.60;;;;;;;4.95;99.74;99683.63;436228;1253;139735;-70
2023/04/19 04:03:34;;;;;;;14.30;12.80;;;;;;;4.93;99.92;99680.75;435941;1250;140032;-72
2023/04/19 04:13:42;;;;;;;11.30;10.20;;;;;;;4.79;99.89;99678.88;436807;1250;140372;-70
2023/04/19 04:23:48;;;;;;;13.60;11.60;;;;;;;4.68;99.88;99670.60;436343;1251;139766;-71
2023/04/19 04:33:54;;;;;;;10.40;9.40;;;;;;;4.56;99.79;99660.98;436138;1251;139142;-70
2023/04/19 04:44:03;;;;;;;11.50;10.30;;;;;;;4.36;99.73;99651.86;436523;1250;140835;-72
2023/04/19 04:54:17;;;;;;;12.50;10.50;;;;;;;4.28;99.78;99650.77;436119;1251;140568;-71
2023/04/19 05:04:23;;;;;;;11.70;9.00;;;;;;;4.28;99.85;99653.20;436097;1251;140601;-72
2023/04/19 05:14:29;;;;;;;10.10;8.90;;;;;;;4.30;99.45;99649.65;436785;1250;141267;-72
2023/04/19 05:24:35;;;;;;;14.70;11.00;;;;;;;4.26;99.18;99661.45;436114;1254;138457;-70
2023/04/19 05:34:41;;;;;;;11.90;9.70;;;;;;;4.28;99.43;99654.40;435672;1251;139161;-71
2023/04/19 05:44:46;;;;;;;10.50;8.90;;;;;;;4.32;99.49;99644.39;435938;1250;139654;-72
2023/04/19 05:54:52;;;;;;;11.20;9.50;;;;;;;4.40;99.62;99645.31;436388;1256;139106;-71
2023/04/19 06:04:58;;;;;;;10.00;8.70;;;;;;;4.54;99.59;99638.52;436521;1251;139721;-71
2023/04/19 06:15:11;;;;;;;15.70;10.00;;;;;;;4.63;99.14;99633.68;436735;1250;141679;-72
2023/04/19 06:25:17;;;;;;;11.80;9.40;;;;;;;4.85;99.12;99623.48;437241;1253;138645;-71
2023/04/19 06:35:24;;;;;;;12.10;9.70;;;;;;;5.20;98.73;99632.98;436881;1255;138814;-71
2023/04/19 06:45:30;;;;;;;10.90;9.80;;;;;;;5.32;98.17;99639.29;436769;1255;139179;-71
2023/04/19 06:55:36;;;;;;;12.70;11.20;;;;;;;5.33;97.80;99639.94;436055;1250;139208;-72
2023/04/19 07:05:42;;;;;;;12.90;11.60;;;;;;;5.29;97.99;99644.08;436080;1250;139477;-72
2023/04/19 07:15:48;;;;;;;11.40;10.30;;;;;;;5.34;98.52;99640.23;436121;1251;180831;-72
2023/04/19 07:25:54;;;;;;;12.00;10.80;;;;;;;5.67;98.39;99628.61;435926;1255;140984;-70
2023/04/19 07:36:00;;;;;;;10.70;9.70;;;;;;;5.94;97.51;99619.10;436073;1256;139693;-71
2023/04/19 07:46:12;;;;;;;11.10;9.50;;;;;;;5.86;97.21;99620.52;436195;1250;140505;-72
2023/04/19 07:56:19;;;;;;;11.40;10.00;;;;;;;5.80;97.09;99619.92;436834;1254;139639;-71
2023/04/19 08:06:26;;;;;;;11.00;9.80;;;;;;;5.75;97.09;99618.20;436617;1250;138871;-70
2023/04/19 08:16:32;;;;;;;11.60;9.00;;;;;;;5.71;97.19;99618.35;436738;1251;139425;-71
2023/04/19 08:26:58;;;;;;;8.10;7.30;;;;;;;5.75;97.33;99610.05;435863;1255;138936;-72
2023/04/19 08:37:06;;;;;;;8.30;7.60;;;;;;;5.80;97.05;99605.81;436097;1251;138271;-72
2023/04/19 08:47:15;;;;;;;8.20;7.40;;;;;;;5.80;97.19;99603.56;436706;1255;138610;-71
2023/04/19 08:57:36;;;;;;;6.90;6.30;;;;;;;6.12;97.29;99604.96;437521;1251;139780;-71
2023/04/19 09:07:42;;;;;;;4.80;4.40;;;;;;;6.33;96.58;99606.62;435903;1250;140108;-72
2023/04/19 09:18:05;;;;;;;6.90;4.60;;;;;;;6.32;96.47;99609.81;435922;1251;139709;-72
2023/04/19 09:28:13;;;;;;;5.80;5.30;;;;;;;6.61;96.55;99607.23;436904;1256;140269;-70
2023/04/19 09:38:18;;;;;;;8.40;6.40;;;;;;;7.12;96.20;99606.02;436126;1255;139347;-70
2023/04/19 09:48:24;;;;;;;5.80;5.20;;;;;;;7.16;94.82;99615.58;436016;1255;138672;-70
2023/04/19 09:58:30;;;;;;;6.00;5.30;;;;;;;7.37;94.44;99607.77;436256;1255;138414;-71
2023/04/19 10:08:39;;;;;;;6.60;6.00;;;;;;;7.66;93.87;99611.52;436453;1251;139932;-71
2023/04/19 10:18:45;;;;;;;6.60;5.50;;;;;;;7.57;93.28;99616.01;436879;1255;138760;-72
2023/04/19 10:28:51;;;;;;;8.10;7.10;;;;;;;7.38;93.41;99615.37;436464;1251;140001;-71
2023/04/19 10:38:57;;;;;;;11.80;9.60;;;;;;;7.54;93.62;99613.00;436531;1251;139880;-71
2023/04/19 10:49:05;;;;;;;9.20;8.30;;;;;;;7.65;93.45;99618.88;436646;1255;138478;-71
2023/04/19 10:59:21;;;;;;;8.80;8.00;;;;;;;7.85;93.45;99610.02;436775;1251;139177;-72
2023/04/19 11:09:28;;;;;;;10.00;8.90;;;;;;;7.93;93.30;99612.40;436311;1255;139373;-71
2023/04/19 11:19:34;;;;;;;10.40;9.20;;;;;;;7.96;93.18;99608.23;437213;1256;139646;-71
2023/04/19 11:29:40;;;;;;;11.00;9.20;;;;;;;7.89;93.12;99618.90;436349;1255;139973;-69
2023/04/19 11:39:49;;;;;;;10.70;8.40;;;;;;;7.79;93.08;99623.09;436587;1256;138821;-71
2023/04/19 11:49:56;;;;;;;9.10;8.20;;;;;;;7.82;92.96;99625.35;436236;1255;140445;-70
2023/04/19 12:00:09;;;;;;;10.20;9.00;;;;;;;7.82;92.49;99626.36;437270;1251;138706;-71
2023/04/19 12:10:16;;;;;;;9.20;8.30;;;;;;;7.62;92.52;99623.39;436756;1255;139403;-71
2023/04/19 12:20:32;;;;;;;9.30;8.30;;;;;;;7.62;92.82;99618.16;436423;1256;138956;-71
2023/04/19 12:30:38;;;;;;;10.80;9.70;;;;;;;8.09;92.82;99613.81;436516;1256;138444;-70
2023/04/19 12:40:45;;;;;;;8.70;7.80;;;;;;;8.47;92.19;99615.65;436162;1256;140448;-71
2023/04/19 12:50:51;;;;;;;9.00;8.10;;;;;;;8.55;91.33;99623.80;435911;1257;139858;-70
2023/04/19 13:00:56;;;;;;;9.40;8.50;;;;;;;8.48;91.12;99623.96;435854;1256;138668;-71
2023/04/19 13:11:02;;;;;;;11.20;10.10;;;;;;;8.38;91.33;99620.63;435930;1256;139414;-71
2023/04/19 13:21:08;;;;;;;10.60;8.30;;;;;;;8.41;91.47;99631.30;436095;1256;139246;-72
2023/04/19 13:31:14;;;;;;;11.60;9.50;;;;;;;8.39;90.90;99640.48;435850;1255;139546;-71
2023/04/19 13:41:20;;;;;;;9.30;8.50;;;;;;;8.43;91.14;99647.95;435620;1256;139174;-71
2023/04/19 13:51:27;;;;;;;9.60;8.70;;;;;;;8.71;91.03;99645.38;436461;1256;140077;-71
2023/04/19 14:01:54;;;;;;;10.30;7.80;;;;;;;8.75;90.29;99648.69;436318;1257;140053;-72
2023/04/19 14:12:01;;;;;;;9.40;8.40;;;;;;;8.67;90.03;99648.58;440794;1256;138695;-71
2023/04/19 14:22:07;;;;;;;9.50;8.50;;;;;;;8.76;90.13;99650.58;435962;1256;138642;-73
2023/04/19 14:32:14;;;;;;;12.30;9.30;;;;;;;9.22;90.27;99640.13;435776;1254;140203;-70
2023/04/19 14:42:22;;;;;;;11.40;8.10;;;;;;;10.16;89.97;99631.98;435824;1260;138902;-72
2023/04/19 14:52:29;;;;;;;11.40;9.10;;;;;;;11.03;88.11;99632.70;436090;1257;139290;-72
2023/04/19 15:02:36;;;;;;;13.60;9.60;;;;;;;11.07;86.55;99638.22;435903;1251;139914;-72
2023/04/19 15:12:42;;;;;;;12.40;10.70;;;;;;;10.71;86.17;99637.33;435901;1256;140009;-72
2023/04/19 15:22:48;;;;;;;11.60;10.40;;;;;;;10.01;86.47;99642.52;435970;1255;140104;-71
2023/04/19 15:32:54;;;;;;;11.10;10.00;;;;;;;9.47;87.63;99642.20;435954;1256;139828;-72
2023/04/19 15:43:00;;;;;;;11.70;9.60;;;;;;;9.27;88.45;99651.53;435934;1251;139234;-71
2023/04/19 15:53:07;;;;;;;13.20;11.00;;;;;;;8.93;88.95;99660.42;435822;1256;139469;-71
2023/04/19 16:03:13;;;;;;;13.40;10.20;;;;;;;8.62;89.77;99671.24;435871;1251;139738;-72
2023/04/19 16:13:19;;;;;;;17.30;12.10;;;;;;;8.50;90.54;99686.15;435644;1251;139837;-71
2023/04/19 16:23:25;;;;;;;15.40;13.60;;;;;;;8.42;91.25;99680.95;436169;1251;139972;-71
2023/04/19 16:33:31;;;;;;;16.40;13.80;;;;;;;8.24;91.81;99683.66;436251;1255;139932;-71
2023/04/19 16:43:37;;;;;;;21.70;16.60;;;;;;;8.06;92.57;99680.92;436506;1251;139974;-72
2023/04/19 16:53:44;;;;;;;17.20;12.60;;;;;;;7.98;93.21;99698.41;436547;1255;139904;-72
2023/04/19 17:03:50;;;;;;;22.90;16.40;;;;;;;7.96;93.54;99711.25;436429;1257;139195;-69
2023/04/19 17:13:56;;;;;;;22.60;20.20;;;;;;;7.93;94.17;99716.83;435992;1256;139934;-69
2023/04/19 17:24:02;;;;;;;24.70;19.50;;;;;;;7.86;94.43;99722.89;436277;1251;138629;-68
2023/04/19 17:34:08;;;;;;;21.00;18.80;;;;;;;7.75;95.09;99720.66;436480;1256;139236;-68
2023/04/19 17:44:14;;;;;;;23.10;17.00;;;;;;;7.63;95.66;99729.79;436230;1251;140031;-69
2023/04/19 17:54:20;;;;;;;20.10;16.40;;;;;;;7.48;96.11;99736.28;436909;1251;139731;-68
2023/04/19 18:04:25;;;;;;;20.70;18.60;;;;;;;7.34;96.65;99747.05;436337;1251;139157;-69
2023/04/19 18:14:32;;;;;;;32.90;19.90;;;;;;;7.21;97.20;99757.45;436398;1251;141434;-68
2023/04/19 18:24:39;;;;;;;27.00;22.40;;;;;;;7.11;97.86;99764.34;436043;1254;139367;-69
2023/04/19 18:34:44;;;;;;;;;;;;;;;7.01;98.47;99763.55;436863;1251;139068;-68
2023/04/19 18:44:49;;;;;;;26.60;23.60;;;;;;;6.97;98.95;99760.40;436357;1255;125898;-69
2023/04/19 18:54:59;;;;;;;34.40;26.70;;;;;;;6.93;99.46;99759.21;436383;1251;138697;-68
2023/04/19 19:05:08;;;;;;;39.70;31.20;;;;;;;6.93;99.95;99754.04;436248;1251;139305;-68
2023/04/19 19:15:15;;;;;;;36.20;29.60;;;;;;;6.91;100.00;99751.30;436153;1251;139578;-68
2023/04/19 19:25:21;;;;;;;32.00;25.90;;;;;;;6.94;100.00;99753.45;436455;1255;139959;-68
2023/04/19 19:35:27;;;;;;;38.10;30.00;;;;;;;6.99;100.00;99758.61;436024;1256;141037;-69
2023/04/19 19:45:35;;;;;;;36.40;30.80;;;;;;;7.01;100.00;99756.08;436532;1254;139593;-67
2023/04/19 19:55:39;;;;;;;;;;;;;;;6.97;100.00;99754.70;436938;1251;140644;-67
2023/04/19 20:05:45;;;;;;;40.80;33.90;;;;;;;6.94;100.00;99753.96;436328;1254;124941;-69
2023/04/19 20:15:52;;;;;;;42.90;36.40;;;;;;;6.92;100.00;99752.48;436647;1252;139948;-68
2023/04/19 20:25:58;;;;;;;42.50;34.20;;;;;;;6.90;100.00;99752.39;436971;1251;139495;-69
2023/04/19 20:36:06;;;;;;;34.10;25.50;;;;;;;6.90;100.00;99749.28;436737;1254;139428;-67
2023/04/19 20:46:12;;;;;;;28.70;25.10;;;;;;;6.95;100.00;99754.98;436729;1250;139779;-69
2023/04/19 20:56:18;;;;;;;29.10;25.30;;;;;;;6.95;100.00;99759.30;436342;1255;140353;-69
2023/04/19 21:06:23;;;;;;;27.00;24.00;;;;;;;6.95;100.00;99758.80;436410;1250;138781;-67
2023/04/19 21:16:29;;;;;;;29.10;25.90;;;;;;;6.94;100.00;99759.39;436345;1250;140330;-69
2023/04/19 21:26:36;;;;;;;27.70;23.40;;;;;;;6.97;100.00;99763.73;436305;1251;140960;-69
2023/04/19 21:36:42;;;;;;;39.70;28.10;;;;;;;6.99;100.00;99762.10;436372;1251;140035;-68
2023/04/19 21:46:49;;;;;;;33.40;27.60;;;;;;;7.02;100.00;99763.00;436449;1254;139861;-69
2023/04/19 21:56:56;;;;;;;28.10;24.60;;;;;;;7.01;100.00;99766.70;436819;1251;140557;-67
2023/04/19 22:07:02;;;;;;;29.00;25.10;;;;;;;6.96;100.00;99763.27;436468;1251;140191;-68
2023/04/19 22:17:08;;;;;;;31.20;27.20;;;;;;;6.91;100.00;99771.52;436339;1250;139865;-69
2023/04/19 22:27:15;;;;;;;28.70;25.20;;;;;;;6.80;100.00;99769.91;436115;1251;139691;-67
2023/04/19 22:37:21;;;;;;;31.00;27.50;;;;;;;6.69;100.00;99765.69;436275;1252;140736;-68
2023/04/19 22:47:27;;;;;;;29.60;26.00;;;;;;;6.48;100.00;99756.72;436216;1251;138968;-67
2023/04/19 22:57:33;;;;;;;33.50;27.90;;;;;;;6.26;100.00;99757.83;437557;1251;140013;-68
2023/04/19 23:07:41;;;;;;;28.80;24.80;;;;;;;5.98;100.00;99763.34;437032;1250;140992;-69
2023/04/19 23:17:47;;;;;;;34.80;28.40;;;;;;;5.71;100.00;99762.71;437095;1254;140130;-68
2023/04/19 23:27:53;;;;;;;31.20;26.30;;;;;;;5.57;100.00;99759.98;436656;1255;140713;-69
2023/04/19 23:37:58;;;;;;;31.70;25.70;;;;;;;5.47;100.00;99755.36;436380;1250;138866;-68
2023/04/19 23:48:05;;;;;;;29.80;25.10;;;;;;;5.51;100.00;99752.05;436394;1251;139017;-69
2023/04/19 23:58:11;;;;;;;26.70;23.10;;;;;;;5.49;100.00;99753.52;436514;1255;140004;-68
